createdAt,value
2019-02-18T00:00:45.742Z,101529.49
2019-02-18T00:03:15.858Z,101536.23
2019-02-18T00:05:45.805Z,101542.04
2019-02-18T00:08:15.757Z,101537.45
2019-02-18T00:10:45.723Z,101533.21
2019-02-18T00:13:15.664Z,101531.59
2019-02-18T00:15:45.646Z,101532.70
2019-02-18T00:18:15.652Z,101529.04
2019-02-18T00:20:45.653Z,101531.28
2019-02-18T00:23:15.879Z,101532.59
2019-02-18T00:25:45.832Z,101529.04
2019-02-18T00:28:15.638Z,101533.72
2019-02-18T00:30:45.959Z,101537.27
2019-02-18T00:33:15.910Z,101536.54
2019-02-18T00:35:45.856Z,101533.15
2019-02-18T00:38:15.813Z,101535.02
2019-02-18T00:40:46.082Z,101532.93
2019-02-18T00:43:16.077Z,101540.81
2019-02-18T00:45:45.950Z,101540.27
2019-02-18T00:48:16.243Z,101535.94
2019-02-18T00:50:46.235Z,101529.84
2019-02-18T00:53:16.180Z,101532.93
2019-02-18T00:55:46.106Z,101536.57
2019-02-18T00:58:16.351Z,101536.19
2019-02-18T01:00:46.294Z,101538.05
2019-02-18T01:03:16.861Z,101534.19
2019-02-18T01:05:46.793Z,101533.46
2019-02-18T01:08:17.046Z,101530.91
2019-02-18T01:10:46.989Z,101534.09
2019-02-18T01:13:16.940Z,101533.62
2019-02-18T01:15:46.877Z,101535.10
2019-02-18T01:18:16.834Z,101533.57
2019-02-18T01:20:46.775Z,101537.32
2019-02-18T01:23:16.731Z,101534.17
2019-02-18T01:25:46.924Z,101532.72
2019-02-18T01:28:16.888Z,101526.89
2019-02-18T01:30:47.437Z,101520.19
2019-02-18T01:33:36.466Z,101521.35
2019-02-18T01:36:06.334Z,101518.16
2019-02-18T01:38:36.487Z,101522.87
2019-02-18T01:41:06.439Z,101518.70
2019-02-18T01:43:36.391Z,101519.36
2019-02-18T01:46:06.693Z,101522.61
2019-02-18T01:48:36.612Z,101522.84
2019-02-18T01:51:07.559Z,101514.28
2019-02-18T01:53:37.789Z,101520.95
2019-02-18T01:56:07.740Z,101517.25
2019-02-18T01:58:37.979Z,101523.88
2019-02-18T02:01:07.924Z,101519.72
2019-02-18T02:03:37.894Z,101511.61
2019-02-18T02:06:07.836Z,101516.13
2019-02-18T02:08:37.812Z,101511.80
2019-02-18T02:11:07.748Z,101507.63
2019-02-18T02:13:38.390Z,101506.40
2019-02-18T02:16:10.776Z,101507.40
2019-02-18T02:18:40.754Z,101496.68
2019-02-18T02:21:10.997Z,101493.31
2019-02-18T02:23:40.956Z,101491.16
2019-02-18T02:26:10.899Z,101488.23
2019-02-18T02:28:40.905Z,101495.25
2019-02-18T02:31:10.859Z,101499.09
2019-02-18T02:33:40.762Z,101488.23
2019-02-18T02:36:10.601Z,101492.62
2019-02-18T02:38:40.589Z,101488.38
2019-02-18T02:41:10.578Z,101486.38
2019-02-18T02:43:40.532Z,101486.52
2019-02-18T02:46:10.525Z,101487.25
2019-02-18T02:48:40.866Z,101487.94
2019-02-18T02:51:10.812Z,101487.41
2019-02-18T02:53:41.003Z,101477.47
2019-02-18T02:56:10.804Z,101488.73
2019-02-18T02:58:41.050Z,101482.33
2019-02-18T03:01:10.996Z,101483.86
2019-02-18T03:03:41.422Z,101475.55
2019-02-18T03:06:12.731Z,101477.16
2019-02-18T03:08:42.561Z,101478.69
2019-02-18T03:11:13.398Z,101472.28
2019-02-18T03:13:43.911Z,101477.63
2019-02-18T03:16:14.029Z,101474.45
2019-02-18T03:18:44.250Z,101481.37
2019-02-18T03:21:14.194Z,101476.07
2019-02-18T03:23:44.182Z,101478.69
2019-02-18T03:26:14.156Z,101471.29
2019-02-18T03:29:10.045Z,101469.91
2019-02-18T03:31:39.967Z,101471.06
2019-02-18T03:34:38.227Z,101466.45
2019-02-18T03:37:08.167Z,101461.81
2019-02-18T03:39:38.048Z,101465.20
2019-02-18T03:42:07.983Z,101468.59
2019-02-18T03:44:37.864Z,101466.52
2019-02-18T03:47:07.757Z,101468.51
2019-02-18T03:49:38.123Z,101471.70
2019-02-18T03:52:08.246Z,101473.16
2019-02-18T03:54:38.196Z,101469.84
2019-02-18T03:57:08.172Z,101478.84
2019-02-18T03:59:38.357Z,101476.39
2019-02-18T04:02:08.612Z,101476.61
2019-02-18T04:04:38.551Z,101472.12
2019-02-18T04:07:08.775Z,101468.91
2019-02-18T04:09:38.667Z,101469.05
2019-02-18T04:12:08.618Z,101467.50
2019-02-18T04:14:38.906Z,101470.72
2019-02-18T04:17:08.775Z,101470.05
2019-02-18T04:19:38.746Z,101465.66
2019-02-18T04:22:08.691Z,101474.44
2019-02-18T04:24:38.646Z,101465.88
2019-02-18T04:27:08.866Z,101469.45
2019-02-18T04:29:39.053Z,101469.59
2019-02-18T04:32:09.306Z,101468.98
2019-02-18T04:34:39.523Z,101469.59
2019-02-18T04:37:09.527Z,101465.80
2019-02-18T04:39:39.425Z,101472.34
2019-02-18T04:42:09.991Z,101467.95
2019-02-18T04:44:39.970Z,101462.27
2019-02-18T04:47:09.948Z,101463.05
2019-02-18T04:49:39.815Z,101469.84
2019-02-18T04:52:10.878Z,101467.11
2019-02-18T04:54:40.741Z,101466.44
2019-02-18T04:57:10.896Z,101462.72
2019-02-18T04:59:40.877Z,101466.12
2019-02-18T05:02:13.407Z,101466.41
2019-02-18T05:04:43.669Z,101462.80
2019-02-18T05:07:13.678Z,101461.80
2019-02-18T05:09:43.626Z,101461.34
2019-02-18T05:12:13.982Z,101463.89
2019-02-18T05:14:44.159Z,101463.89
2019-02-18T05:17:14.341Z,101466.97
2019-02-18T05:19:44.215Z,101460.42
2019-02-18T05:22:14.511Z,101468.27
2019-02-18T05:24:44.583Z,101468.34
2019-02-18T05:27:14.876Z,101466.97
2019-02-18T05:29:45.089Z,101462.58
2019-02-18T05:32:16.846Z,101466.58
2019-02-18T05:34:46.660Z,101462.41
2019-02-18T05:37:16.547Z,101464.25
2019-02-18T05:39:46.628Z,101469.12
2019-02-18T05:42:16.589Z,101473.58
2019-02-18T05:44:46.532Z,101476.20
2019-02-18T05:47:16.472Z,101468.80
2019-02-18T05:49:46.878Z,101479.73
2019-02-18T05:52:16.840Z,101476.34
2019-02-18T05:54:47.646Z,101470.83
2019-02-18T05:57:17.460Z,101468.35
2019-02-18T05:59:47.279Z,101466.37
2019-02-18T06:02:18.797Z,101459.97
2019-02-18T06:04:49.037Z,101461.88
2019-02-18T06:07:18.989Z,101458.34
2019-02-18T06:09:48.984Z,101457.48
2019-02-18T06:12:18.851Z,101454.41
2019-02-18T06:14:49.005Z,101456.11
2019-02-18T06:17:18.952Z,101457.28
2019-02-18T06:19:48.842Z,101456.74
2019-02-18T06:22:18.717Z,101460.04
2019-02-18T06:24:48.933Z,101450.80
2019-02-18T06:27:18.813Z,101446.73
2019-02-18T06:29:48.768Z,101442.77
2019-02-18T06:32:18.977Z,101441.84
2019-02-18T06:34:48.913Z,101440.86
2019-02-18T06:37:18.856Z,101447.72
2019-02-18T06:39:49.002Z,101446.70
2019-02-18T06:42:19.954Z,101443.93
2019-02-18T06:45:04.719Z,101444.17
2019-02-18T06:47:34.609Z,101444.10
2019-02-18T06:50:05.132Z,101438.79
2019-02-18T06:52:35.338Z,101439.25
2019-02-18T06:55:06.258Z,101439.71
2019-02-18T06:57:41.234Z,101446.58
2019-02-18T07:00:33.738Z,101449.48
2019-02-18T07:03:25.319Z,101449.48
2019-02-18T07:06:11.871Z,101444.16
2019-02-18T07:08:58.958Z,101457.96
2019-02-18T07:11:32.769Z,101454.81
2019-02-18T07:14:02.723Z,101458.52
2019-02-18T07:16:32.554Z,101453.03
2019-02-18T07:19:02.854Z,101459.89
2019-02-18T07:21:32.855Z,101453.19
2019-02-18T07:24:03.211Z,101456.27
2019-02-18T07:26:33.099Z,101460.13
2019-02-18T07:29:03.056Z,101451.42
2019-02-18T07:31:33.251Z,101449.19
2019-02-18T07:34:03.181Z,101456.20
2019-02-18T07:36:34.991Z,101457.36
2019-02-18T07:39:06.285Z,101455.41
2019-02-18T07:41:36.228Z,101456.11
2019-02-18T07:44:06.205Z,101456.42
2019-02-18T07:46:36.152Z,101456.34
2019-02-18T07:49:06.438Z,101451.02
2019-02-18T07:51:36.311Z,101443.63
2019-02-18T07:54:06.358Z,101442.16
2019-02-18T07:56:36.227Z,101448.10
2019-02-18T07:59:06.178Z,101444.84
2019-02-18T08:01:36.123Z,101443.69
2019-02-18T08:04:06.070Z,101442.60
2019-02-18T08:06:35.936Z,101439.25
2019-02-18T08:09:07.337Z,101442.65
2019-02-18T08:11:37.197Z,101441.56
2019-02-18T08:14:07.229Z,101438.80
2019-02-18T08:16:37.145Z,101436.02
2019-02-18T08:19:07.462Z,101442.22
2019-02-18T08:21:37.446Z,101445.46
2019-02-18T08:24:07.385Z,101445.11
2019-02-18T08:26:37.600Z,101438.86
2019-02-18T08:29:07.574Z,101441.70
2019-02-18T08:31:38.864Z,101439.77
2019-02-18T08:34:09.105Z,101440.34
2019-02-18T08:36:39.107Z,101439.64
2019-02-18T08:39:09.556Z,101438.39
2019-02-18T08:41:39.931Z,101430.33
2019-02-18T08:44:10.071Z,101431.86
2019-02-18T08:46:40.021Z,101428.91
2019-02-18T08:49:10.314Z,101426.94
2019-02-18T08:51:40.258Z,101425.76
2019-02-18T08:54:10.222Z,101422.97
2019-02-18T08:56:40.177Z,101419.63
2019-02-18T08:59:11.119Z,101415.88
2019-02-18T09:01:41.281Z,101416.85
2019-02-18T09:04:11.591Z,101421.38
2019-02-18T09:06:41.536Z,101422.80
2019-02-18T09:09:11.773Z,101422.92
2019-02-18T09:11:41.720Z,101418.91
2019-02-18T09:14:12.647Z,101411.44
2019-02-18T09:16:42.522Z,101411.15
2019-02-18T09:19:12.820Z,101412.97
2019-02-18T09:21:42.696Z,101412.61
2019-02-18T09:24:41.061Z,101408.38
2019-02-18T09:27:11.573Z,101407.68
2019-02-18T09:29:41.453Z,101399.82
2019-02-18T09:32:11.727Z,101399.90
2019-02-18T09:34:41.658Z,101393.44
2019-02-18T09:37:11.643Z,101398.05
2019-02-18T09:39:41.506Z,101398.12
2019-02-18T09:42:11.459Z,101396.36
2019-02-18T09:44:42.475Z,101403.86
2019-02-18T09:47:12.438Z,101397.77
2019-02-18T09:49:42.305Z,101399.53
2019-02-18T09:52:12.205Z,101397.38
2019-02-18T09:54:42.155Z,101401.48
2019-02-18T09:57:12.819Z,101394.16
2019-02-18T09:59:42.686Z,101394.13
2019-02-18T10:02:12.678Z,101396.97
2019-02-18T10:04:42.471Z,101392.87
2019-02-18T10:07:12.687Z,101398.36
2019-02-18T10:09:42.879Z,101399.98
2019-02-18T10:12:18.218Z,101389.63
2019-02-18T10:14:45.878Z,101385.25
2019-02-18T10:17:16.197Z,101390.42
2019-02-18T10:19:46.132Z,101386.86
2019-02-18T10:22:16.047Z,101380.36
2019-02-18T10:24:50.627Z,101384.30
2019-02-18T10:27:18.306Z,101379.84
2019-02-18T10:29:48.197Z,101375.48
2019-02-18T10:32:18.660Z,101373.68
2019-02-18T10:34:48.975Z,101369.30
2019-02-18T10:37:19.026Z,101369.94
2019-02-18T10:39:48.917Z,101366.29
2019-02-18T10:42:19.874Z,101365.52
2019-02-18T10:44:49.830Z,101362.33
2019-02-18T10:47:20.068Z,101356.04
2019-02-18T10:49:50.307Z,101352.58
2019-02-18T10:52:22.555Z,101346.83
2019-02-18T10:54:51.950Z,101347.35
2019-02-18T10:57:22.102Z,101348.20
2019-02-18T10:59:52.067Z,101343.88
2019-02-18T11:02:21.959Z,101340.41
2019-02-18T11:04:52.489Z,101341.13
2019-02-18T11:07:22.760Z,101339.20
2019-02-18T11:09:52.711Z,101329.55
2019-02-18T11:12:23.053Z,101334.58
2019-02-18T11:14:53.014Z,101333.73
2019-02-18T11:17:22.932Z,101329.75
2019-02-18T11:19:52.815Z,101328.98
2019-02-18T11:22:23.265Z,101328.45
2019-02-18T11:24:53.213Z,101317.44
2019-02-18T11:27:23.187Z,101312.84
2019-02-18T11:29:54.117Z,101311.45
2019-02-18T11:32:24.405Z,101303.90
2019-02-18T11:34:54.736Z,101300.26
2019-02-18T11:37:24.699Z,101291.30
2019-02-18T11:39:54.581Z,101291.60
2019-02-18T11:42:24.557Z,101292.19
2019-02-18T11:44:54.441Z,101286.27
2019-02-18T11:47:24.408Z,101283.48
2019-02-18T11:49:55.293Z,101279.02
2019-02-18T11:52:27.463Z,101278.18
2019-02-18T11:54:57.347Z,101269.63
2019-02-18T11:57:27.232Z,101261.96
2019-02-18T11:59:57.210Z,101253.94
2019-02-18T12:02:27.542Z,101252.61
2019-02-18T12:04:57.858Z,101249.77
2019-02-18T12:07:27.809Z,101249.70
2019-02-18T12:09:58.018Z,101251.90
2019-02-18T12:12:28.521Z,101243.02
2019-02-18T12:14:58.843Z,101241.27
2019-02-18T12:17:28.784Z,101244.29
2019-02-18T12:19:59.054Z,101234.52
2019-02-18T12:22:29.009Z,101234.83
2019-02-18T12:24:58.901Z,101237.78
2019-02-18T12:27:29.077Z,101235.50
2019-02-18T12:29:59.340Z,101218.55
2019-02-18T12:32:29.312Z,101223.73
2019-02-18T12:34:59.200Z,101212.12
2019-02-18T12:37:30.126Z,101205.83
2019-02-18T12:40:00.370Z,101200.37
2019-02-18T12:42:30.316Z,101194.42
2019-02-18T12:45:00.557Z,101188.02
2019-02-18T12:47:30.789Z,101183.62
2019-02-18T12:50:00.593Z,101172.48
2019-02-18T12:52:31.857Z,101171.38
2019-02-18T12:55:01.950Z,101160.00
2019-02-18T12:57:31.959Z,101156.98
2019-02-18T13:00:02.022Z,101148.80
2019-02-18T13:02:32.453Z,101143.91
2019-02-18T13:05:02.968Z,101133.86
2019-02-18T13:07:34.371Z,101130.89
2019-02-18T13:10:05.592Z,101128.03
2019-02-18T13:12:35.511Z,101122.95
2019-02-18T13:15:06.996Z,101113.58
2019-02-18T13:17:36.940Z,101112.31
2019-02-18T13:20:07.550Z,101110.48
2019-02-18T13:22:37.938Z,101104.59
2019-02-18T13:25:08.228Z,101099.99
2019-02-18T13:27:38.175Z,101098.35
2019-02-18T13:30:11.422Z,101091.05
2019-02-18T13:32:41.692Z,101073.27
2019-02-18T13:35:11.694Z,101074.06
2019-02-18T13:37:41.996Z,101064.45
2019-02-18T13:40:14.350Z,101061.55
2019-02-18T13:42:44.483Z,101059.67
2019-02-18T13:45:14.460Z,101056.04
2019-02-18T13:47:44.754Z,101057.00
2019-02-18T13:50:14.892Z,101055.38
2019-02-18T13:52:45.210Z,101050.45
2019-02-18T13:55:15.215Z,101051.23
2019-02-18T13:57:45.750Z,101049.96
2019-02-18T14:00:18.985Z,101057.68
2019-02-18T14:02:49.625Z,101056.81
2019-02-18T14:05:20.688Z,101055.61
2019-02-18T14:07:50.648Z,101059.73
2019-02-18T14:10:21.635Z,101061.88
2019-02-18T14:12:51.586Z,101060.53
2019-02-18T14:15:21.906Z,101053.59
2019-02-18T14:17:51.852Z,101056.34
2019-02-18T14:20:21.803Z,101053.11
2019-02-18T14:22:51.765Z,101051.19
2019-02-18T14:25:21.835Z,101046.95
2019-02-18T14:27:51.809Z,101037.28
2019-02-18T14:30:21.810Z,101034.95
2019-02-18T14:32:51.684Z,101039.28
2019-02-18T14:35:23.122Z,101030.59
2019-02-18T14:37:53.684Z,101031.13
2019-02-18T14:40:24.538Z,101022.28
2019-02-18T14:42:54.489Z,101023.45
2019-02-18T14:45:24.795Z,101020.25
2019-02-18T14:47:54.748Z,101025.60
2019-02-18T14:50:24.752Z,101019.75
2019-02-18T14:52:54.712Z,101016.27
2019-02-18T14:55:24.683Z,101018.94
2019-02-18T14:57:54.648Z,101022.25
2019-02-18T15:00:24.689Z,101019.45
2019-02-18T15:02:56.006Z,101019.45
2019-02-18T15:05:26.874Z,101015.22
2019-02-18T15:07:56.936Z,101011.22
2019-02-18T15:10:26.890Z,101006.87
2019-02-18T15:12:56.891Z,101006.89
2019-02-18T15:15:26.750Z,101009.90
2019-02-18T15:17:56.702Z,101009.21
2019-02-18T15:20:26.599Z,101010.55
2019-02-18T15:22:56.565Z,101019.89
2019-02-18T15:25:26.527Z,101022.06
2019-02-18T15:27:56.487Z,101019.97
2019-02-18T15:30:26.839Z,101028.67
2019-02-18T15:32:57.624Z,101029.25
2019-02-18T15:35:27.623Z,101038.77
2019-02-18T15:37:57.662Z,101028.98
2019-02-18T15:40:27.574Z,101040.04
2019-02-18T15:42:57.539Z,101033.23
2019-02-18T15:45:27.530Z,101036.34
2019-02-18T15:48:01.748Z,101031.48
2019-02-18T15:50:31.169Z,101035.62
2019-02-18T15:53:01.144Z,101039.56
2019-02-18T15:55:32.414Z,101039.41
2019-02-18T15:58:02.377Z,101035.76
2019-02-18T16:00:32.736Z,101033.92
2019-02-18T16:03:02.703Z,101037.45
2019-02-18T16:05:32.642Z,101047.11
2019-02-18T16:08:02.627Z,101041.96
2019-02-18T16:10:32.662Z,101037.17
2019-02-18T16:13:02.613Z,101041.36
2019-02-18T16:15:32.573Z,101037.75
2019-02-18T16:18:02.519Z,101030.12
2019-02-18T16:20:32.478Z,101042.92
2019-02-18T16:23:02.498Z,101044.05
2019-02-18T16:25:32.544Z,101046.44
2019-02-18T16:28:02.482Z,101038.10
2019-02-18T16:30:32.549Z,101037.21
2019-02-18T16:33:02.492Z,101037.88
2019-02-18T16:35:32.733Z,101037.04
2019-02-18T16:38:02.645Z,101035.41
2019-02-18T16:40:33.207Z,101035.48
2019-02-18T16:43:03.151Z,101038.93
2019-02-18T16:45:33.266Z,101035.52
2019-02-18T16:48:03.525Z,101038.91
2019-02-18T16:50:33.609Z,101036.66
2019-02-18T16:53:03.559Z,101039.38
2019-02-18T16:55:33.720Z,101039.42
2019-02-18T16:58:03.962Z,101041.48
2019-02-18T17:00:34.184Z,101042.88
2019-02-18T17:03:04.562Z,101051.93
2019-02-18T17:05:34.519Z,101049.31
2019-02-18T17:08:04.464Z,101043.84
2019-02-18T17:10:34.675Z,101057.00
2019-02-18T17:13:10.018Z,101063.52
2019-02-18T17:15:36.182Z,101056.92
2019-02-18T17:18:06.146Z,101061.64
2019-02-18T17:20:36.101Z,101059.37
2019-02-18T17:23:06.054Z,101063.95
2019-02-18T17:25:36.293Z,101057.10
2019-02-18T17:28:06.244Z,101056.19
2019-02-18T17:30:36.177Z,101062.83
2019-02-18T17:33:06.127Z,101064.16
2019-02-18T17:35:36.362Z,101064.41
2019-02-18T17:38:06.805Z,101066.82
2019-02-18T17:40:36.697Z,101064.09
2019-02-18T17:43:06.673Z,101067.48
2019-02-18T17:45:36.605Z,101059.43
2019-02-18T17:48:06.753Z,101059.55
2019-02-18T17:50:36.710Z,101060.28
2019-02-18T17:53:12.345Z,101052.27
2019-02-18T17:55:42.316Z,101049.99
2019-02-18T17:58:12.571Z,101061.31
2019-02-18T18:00:45.899Z,101066.02
2019-02-18T18:03:16.230Z,101061.48
2019-02-18T18:05:46.559Z,101070.02
2019-02-18T18:08:16.589Z,101071.23
2019-02-18T18:10:47.637Z,101062.82
2019-02-18T18:13:24.931Z,101068.39
2019-02-18T18:15:49.714Z,101069.59
2019-02-18T18:18:19.911Z,101068.39
2019-02-18T18:20:50.205Z,101069.12
2019-02-18T18:23:20.172Z,101067.56
2019-02-18T18:25:51.239Z,101074.33
2019-02-18T18:28:21.559Z,101079.73
2019-02-18T18:30:52.766Z,101077.25
2019-02-18T18:33:22.770Z,101074.96
2019-02-18T18:35:52.745Z,101080.13
2019-02-18T18:38:23.791Z,101075.47
2019-02-18T18:40:53.752Z,101073.18
2019-02-18T18:43:24.033Z,101074.37
2019-02-18T18:45:54.323Z,101076.18
2019-02-18T18:48:24.943Z,101076.88
2019-02-18T18:50:54.915Z,101076.06
2019-02-18T18:53:24.889Z,101080.85
2019-02-18T18:55:54.955Z,101083.12
2019-02-18T18:58:25.277Z,101082.77
2019-02-18T19:00:55.884Z,101085.50
2019-02-18T19:03:26.242Z,101082.77
2019-02-18T19:05:56.750Z,101085.41
2019-02-18T19:08:26.869Z,101083.95
2019-02-18T19:10:56.760Z,101083.58
2019-02-18T19:13:26.822Z,101095.35
2019-02-18T19:15:56.853Z,101093.42
2019-02-18T19:18:27.141Z,101089.57
2019-02-18T19:20:57.098Z,101091.37
2019-02-18T19:23:27.090Z,101098.45
2019-02-18T19:25:57.324Z,101093.79
2019-02-18T19:28:27.280Z,101098.45
2019-02-18T19:30:57.160Z,101099.64
2019-02-18T19:33:27.106Z,101101.19
2019-02-18T19:35:57.197Z,101097.45
2019-02-18T19:38:28.100Z,101096.02
2019-02-18T19:40:57.947Z,101096.25
2019-02-18T19:43:27.904Z,101098.75
2019-02-18T19:45:57.941Z,101108.32
2019-02-18T19:48:27.851Z,101109.28
2019-02-18T19:50:57.860Z,101108.29
2019-02-18T19:53:28.140Z,101105.65
2019-02-18T19:55:58.131Z,101111.00
2019-02-18T19:58:28.312Z,101111.58
2019-02-18T20:00:58.247Z,101107.95
2019-02-18T20:03:28.389Z,101114.50
2019-02-18T20:05:58.698Z,101114.83
2019-02-18T20:08:29.087Z,101108.86
2019-02-18T20:10:59.000Z,101109.33
2019-02-18T20:13:30.220Z,101111.34
2019-02-18T20:16:00.461Z,101112.03
2019-02-18T20:18:30.514Z,101109.14
2019-02-18T20:21:00.836Z,101113.67
2019-02-18T20:23:30.872Z,101120.74
2019-02-18T20:26:00.842Z,101120.52
2019-02-18T20:28:31.224Z,101116.95
2019-02-18T20:31:01.212Z,101117.38
2019-02-18T20:33:32.135Z,101117.84
2019-02-18T20:36:02.142Z,101113.36
2019-02-18T20:38:32.180Z,101112.25
2019-02-18T20:41:02.132Z,101115.71
2019-02-18T20:43:32.424Z,101112.18
2019-02-18T20:46:02.516Z,101105.91
2019-02-18T20:48:32.586Z,101106.25
2019-02-18T20:51:02.576Z,101112.68
2019-02-18T20:53:32.661Z,101106.88
2019-02-18T20:56:02.659Z,101110.46
2019-02-18T20:58:32.946Z,101105.56
2019-02-18T21:01:03.156Z,101104.62
2019-02-18T21:03:33.787Z,101111.57
2019-02-18T21:06:03.790Z,101114.68
2019-02-18T21:08:33.683Z,101115.15
2019-02-18T21:11:03.677Z,101112.63
2019-02-18T21:13:33.655Z,101120.87
2019-02-18T21:16:04.006Z,101120.70
2019-02-18T21:18:34.014Z,101120.53
2019-02-18T21:21:04.040Z,101128.37
2019-02-18T21:23:34.271Z,101125.50
2019-02-18T21:26:04.274Z,101115.08
2019-02-18T21:28:34.502Z,101122.40
2019-02-18T21:31:04.514Z,101122.50
2019-02-18T21:33:34.520Z,101118.75
2019-02-18T21:36:04.879Z,101122.17
2019-02-18T21:38:34.940Z,101115.45
2019-02-18T21:41:04.956Z,101121.86
2019-02-18T21:43:34.896Z,101119.06
2019-02-18T21:46:04.923Z,101123.21
2019-02-18T21:48:34.876Z,101125.47
2019-02-18T21:51:04.861Z,101122.70
2019-02-18T21:53:35.148Z,101124.59
2019-02-18T21:56:05.880Z,101122.33
2019-02-18T21:58:35.831Z,101121.38
2019-02-18T22:01:05.915Z,101125.06
2019-02-18T22:03:35.870Z,101121.78
2019-02-18T22:06:05.866Z,101122.73
2019-02-18T22:08:35.832Z,101118.03
2019-02-18T22:11:05.745Z,101123.88
2019-02-18T22:13:35.639Z,101121.98
2019-02-18T22:16:05.659Z,101130.25
2019-02-18T22:18:35.634Z,101126.78
2019-02-18T22:21:05.638Z,101129.78
2019-02-18T22:23:35.622Z,101132.04
2019-02-18T22:26:05.872Z,101123.88
2019-02-18T22:28:35.830Z,101124.20
2019-02-18T22:31:05.791Z,101124.03
2019-02-18T22:33:35.771Z,101124.23
2019-02-18T22:36:05.744Z,101117.00
2019-02-18T22:38:35.721Z,101124.15
2019-02-18T22:41:05.994Z,101123.78
2019-02-18T22:43:35.892Z,101127.72
2019-02-18T22:46:05.908Z,101122.46
2019-02-18T22:48:36.234Z,101118.05
2019-02-18T22:51:06.190Z,101118.89
2019-02-18T22:53:36.558Z,101114.94
2019-02-18T22:56:06.959Z,101121.14
2019-02-18T22:58:37.288Z,101118.52
2019-02-18T23:01:07.838Z,101116.48
2019-02-18T23:03:37.978Z,101120.63
2019-02-18T23:06:07.924Z,101119.88
2019-02-18T23:08:37.831Z,101118.77
2019-02-18T23:11:07.782Z,101115.58
2019-02-18T23:13:37.592Z,101114.87
2019-02-18T23:16:07.604Z,101110.38
2019-02-18T23:18:39.223Z,101106.72
2019-02-18T23:21:09.535Z,101111.70
2019-02-18T23:23:39.767Z,101110.98
2019-02-18T23:26:09.741Z,101111.55
2019-02-18T23:28:40.099Z,101111.18
2019-02-18T23:31:10.029Z,101106.95
2019-02-18T23:33:39.924Z,101111.00
2019-02-18T23:36:10.194Z,101106.31
2019-02-18T23:38:40.180Z,101106.78
2019-02-18T23:41:10.164Z,101106.97
2019-02-18T23:43:40.434Z,101109.92
2019-02-18T23:46:10.690Z,101118.09
2019-02-18T23:48:40.995Z,101121.72
2019-02-18T23:51:11.317Z,101112.34
2019-02-18T23:53:41.576Z,101119.13
2019-02-18T23:56:11.484Z,101117.53
2019-02-18T23:58:42.256Z,101115.19
